Time;durP1;ratioP1;P1;durP2;ratioP2;P2;SDS_P1;SDS_P2;PMS_P1;PMS_P2;Temp;Humidity;BMP_temperature;BMP_pressure;BME280_temperature;BME280_humidity;BME280_pressure;Samples;Min_cycle;Max_cycle;Signal;HPM_P1;HPM_P2
2022/11/10 00:01:56;;;;;;;6.85;2.70;;;;;;;;;;7385970;19;20375;-75
2022/11/10 00:04:22;;;;;;;11.93;2.75;;;;;;;;;;7386303;19;19999;-74
2022/11/10 00:06:47;;;;;;;5.88;2.75;;;;;;;;;;7387132;19;20062;-74
2022/11/10 00:09:13;;;;;;;7.00;2.63;;;;;;;;;;7387542;19;20070;-75
2022/11/10 00:11:39;;;;;;;7.28;2.45;;;;;;;;;;7389901;19;20010;-74
2022/11/10 00:17:01;;;;;;;9.63;3.08;;;;;;;;;;7387841;19;20027;-76
2022/11/10 00:19:27;;;;;;;11.32;2.83;;;;;;;;;;7386364;19;19998;-74
2022/11/10 00:21:53;;;;;;;8.18;3.50;;;;;;;;;;7386322;19;20099;-75
2022/11/10 00:24:18;;;;;;;9.57;2.70;;;;;;;;;;7387085;19;20406;-75
2022/11/10 00:26:43;;;;;;;10.68;2.63;;;;;;;;;;7385927;19;20027;-74
2022/11/10 00:29:09;;;;;;;5.13;2.47;;;;;;;;;;7387101;19;19998;-75
2022/11/10 00:31:37;;;;;;;6.57;2.75;;;;;;;;;;7386114;19;20014;-74
2022/11/10 00:34:02;;;;;;;5.32;2.30;;;;;;;;;;7387124;19;20308;-74
2022/11/10 00:36:28;;;;;;;8.40;2.58;;;;;;;;;;7387381;19;19999;-73
2022/11/10 00:38:54;;;;;;;8.05;2.60;;;;;;;;;;7385693;19;20338;-75
2022/11/10 00:41:19;;;;;;;10.60;2.85;;;;;;;;;;7384532;19;20009;-74
2022/11/10 00:43:45;;;;;;;9.95;2.70;;;;;;;;;;7386721;19;20487;-75
2022/11/10 00:46:10;;;;;;;7.85;2.70;;;;;;;;;;7386337;19;20003;-74
2022/11/10 00:48:36;;;;;;;7.38;2.45;;;;;;;;;;7384695;19;20326;-74
2022/11/10 00:51:02;;;;;;;7.10;2.67;;;;;;;;;;7386000;19;19998;-73
2022/11/10 00:53:27;;;;;;;5.47;2.65;;;;;;;;;;7384144;19;20032;-74
2022/11/10 00:55:52;;;;;;;8.98;2.70;;;;;;;;;;7386117;19;20024;-75
2022/11/10 00:58:18;;;;;;;6.68;3.08;;;;;;;;;;7385861;19;20005;-75
2022/11/10 01:00:43;;;;;;;6.25;2.70;;;;;;;;;;7385840;19;20058;-75
2022/11/10 01:03:15;;;;;;;6.97;2.88;;;;;;;;;;7384048;19;20003;-75
2022/11/10 01:05:42;;;;;;;6.32;2.60;;;;;;;;;;7391370;19;20021;-75
2022/11/10 01:08:07;;;;;;;6.25;2.40;;;;;;;;;;7393207;19;20009;-75
2022/11/10 01:10:33;;;;;;;8.38;2.65;;;;;;;;;;7393146;19;20003;-74
2022/11/10 01:12:58;;;;;;;7.78;2.40;;;;;;;;;;7394187;19;20002;-73
2022/11/10 01:15:24;;;;;;;10.13;3.17;;;;;;;;;;7393028;19;19998;-73
2022/11/10 01:17:50;;;;;;;10.73;2.67;;;;;;;;;;7392877;19;20003;-74
2022/11/10 01:20:16;;;;;;;5.57;2.50;;;;;;;;;;7390611;19;19999;-75
2022/11/10 01:22:41;;;;;;;6.07;2.60;;;;;;;;;;7391001;19;20470;-75
2022/11/10 01:25:08;;;;;;;8.30;2.45;;;;;;;;;;7392645;19;20483;-75
2022/11/10 01:27:33;;;;;;;6.72;2.90;;;;;;;;;;7392582;19;20510;-74
2022/11/10 01:29:59;;;;;;;10.05;2.60;;;;;;;;;;7393170;19;19999;-74
2022/11/10 01:32:24;;;;;;;8.77;2.78;;;;;;;;;;7390557;19;19999;-75
2022/11/10 01:34:49;;;;;;;8.93;2.72;;;;;;;;;;7390499;19;19998;-74
2022/11/10 01:37:15;;;;;;;8.55;2.97;;;;;;;;;;7392346;19;20005;-74
2022/11/10 01:39:40;;;;;;;10.35;2.75;;;;;;;;;;7391386;19;20079;-75
2022/11/10 01:42:06;;;;;;;6.78;2.58;;;;;;;;;;7389137;19;20006;-75
2022/11/10 01:44:34;;;;;;;7.43;2.88;;;;;;;;;;7390434;19;20003;-75
2022/11/10 01:46:59;;;;;;;6.32;2.60;;;;;;;;;;7392304;19;20005;-74
2022/11/10 01:49:31;;;;;;;7.53;2.47;;;;;;;;;;7390390;19;20011;-75
2022/11/10 01:52:00;;;;;;;15.13;3.47;;;;;;;;;;7391022;19;20006;-74
2022/11/10 01:54:29;;;;;;;11.85;3.03;;;;;;;;;;7392183;19;20007;-74
2022/11/10 01:57:00;;;;;;;8.15;3.00;;;;;;;;;;7394326;19;19998;-73
2022/11/10 01:59:27;;;;;;;;;;;;;;;;;;7397290;19;20019;-75
2022/11/10 02:01:57;;;;;;;6.35;3.17;;;;;;;;;;7396505;19;19936;-74
2022/11/10 02:04:23;;;;;;;6.18;2.47;;;;;;;;;;7391115;19;20006;-75
2022/11/10 02:06:49;;;;;;;10.45;2.92;;;;;;;;;;7391881;19;20021;-74
2022/11/10 02:09:15;;;;;;;6.80;2.50;;;;;;;;;;7395671;19;20048;-75
2022/11/10 02:11:42;;;;;;;13.05;2.95;;;;;;;;;;7389548;19;20010;-75
2022/11/10 02:14:08;;;;;;;10.68;2.80;;;;;;;;;;7389981;19;19998;-75
2022/11/10 02:16:35;;;;;;;7.40;2.40;;;;;;;;;;7389421;19;20002;-75
2022/11/10 02:19:22;;;;;;;8.77;3.00;;;;;;;;;;7389091;19;19999;-75
2022/11/10 02:21:48;;;;;;;10.48;2.63;;;;;;;;;;7388300;19;20006;-74
2022/11/10 02:24:13;;;;;;;5.38;2.63;;;;;;;;;;7389307;19;19998;-73
2022/11/10 02:26:44;;;;;;;8.48;2.67;;;;;;;;;;7391076;19;19995;-75
2022/11/10 02:29:09;;;;;;;11.23;3.00;;;;;;;;;;7391489;19;20009;-75
2022/11/10 02:31:35;;;;;;;10.32;2.63;;;;;;;;;;7387847;19;20011;-75
2022/11/10 02:34:00;;;;;;;6.78;2.60;;;;;;;;;;7390837;19;20077;-75
2022/11/10 02:36:25;;;;;;;7.85;2.70;;;;;;;;;;7390633;19;19998;-73
2022/11/10 02:38:51;;;;;;;6.90;2.60;;;;;;;;;;7387890;19;19999;-74
2022/11/10 02:41:16;;;;;;;5.85;2.33;;;;;;;;;;7389655;19;20003;-75
2022/11/10 02:43:41;;;;;;;6.20;2.70;;;;;;;;;;7390080;19;20002;-73
2022/11/10 02:46:07;;;;;;;12.18;2.85;;;;;;;;;;7390013;19;20003;-74
2022/11/10 02:48:32;;;;;;;6.53;2.22;;;;;;;;;;7390307;19;20001;-74
2022/11/10 02:50:58;;;;;;;5.50;2.13;;;;;;;;;;7388450;19;19999;-75
2022/11/10 02:53:23;;;;;;;7.65;2.47;;;;;;;;;;7387795;19;20023;-73
2022/11/10 02:55:48;;;;;;;13.60;3.22;;;;;;;;;;7388227;19;20456;-74
2022/11/10 02:58:14;;;;;;;6.15;2.40;;;;;;;;;;7390140;19;20006;-74
2022/11/10 03:00:39;;;;;;;8.52;2.30;;;;;;;;;;7388343;19;20003;-74
2022/11/10 03:03:04;;;;;;;7.00;2.38;;;;;;;;;;7385919;19;20031;-75
2022/11/10 03:05:31;;;;;;;6.45;2.15;;;;;;;;;;7389565;19;20272;-75
2022/11/10 03:07:58;;;;;;;11.80;3.03;;;;;;;;;;7390121;19;20003;-75
2022/11/10 03:10:25;;;;;;;9.27;2.72;;;;;;;;;;7389243;19;20003;-75
2022/11/10 03:12:59;;;;;;;5.43;1.98;;;;;;;;;;7385396;19;20003;-75
2022/11/10 03:15:25;;;;;;;8.55;2.55;;;;;;;;;;7388955;19;20345;-74
2022/11/10 03:17:51;;;;;;;9.70;2.75;;;;;;;;;;7387684;19;20014;-74
2022/11/10 03:20:17;;;;;;;7.18;2.75;;;;;;;;;;7387636;19;20122;-75
2022/11/10 03:22:42;;;;;;;9.95;2.90;;;;;;;;;;7386884;19;20130;-73
2022/11/10 03:25:09;;;;;;;9.55;2.53;;;;;;;;;;7388727;19;20007;-75
2022/11/10 03:27:34;;;;;;;6.00;2.70;;;;;;;;;;7388282;19;20003;-74
2022/11/10 03:30:00;;;;;;;8.45;3.22;;;;;;;;;;7388584;19;20013;-75
2022/11/10 03:32:25;;;;;;;7.82;2.80;;;;;;;;;;7387167;19;19999;-74
2022/11/10 03:34:50;;;;;;;8.10;2.92;;;;;;;;;;7388567;19;20006;-75
2022/11/10 03:37:16;;;;;;;8.73;2.80;;;;;;;;;;7388488;19;20382;-75
2022/11/10 03:39:41;;;;;;;13.88;3.30;;;;;;;;;;7387580;19;20349;-76
2022/11/10 03:42:06;;;;;;;11.48;2.65;;;;;;;;;;7386801;19;20016;-75
2022/11/10 03:44:32;;;;;;;16.55;3.45;;;;;;;;;;7388162;19;20003;-76
2022/11/10 03:46:57;;;;;;;13.95;3.45;;;;;;;;;;7388803;19;20003;-75
2022/11/10 03:49:22;;;;;;;7.47;3.10;;;;;;;;;;7386527;19;20002;-75
2022/11/10 03:51:48;;;;;;;10.43;2.90;;;;;;;;;;7387510;19;20002;-76
2022/11/10 03:54:13;;;;;;;7.97;3.00;;;;;;;;;;7390843;19;20436;-74
2022/11/10 03:56:38;;;;;;;6.50;2.67;;;;;;;;;;7388004;19;20001;-74
2022/11/10 03:59:04;;;;;;;12.40;3.13;;;;;;;;;;7387258;19;19999;-73
2022/11/10 04:01:29;;;;;;;10.45;3.03;;;;;;;;;;7385440;19;20017;-75
2022/11/10 04:03:55;;;;;;;9.13;2.63;;;;;;;;;;7387576;19;20479;-75
2022/11/10 04:09:06;;;;;;;9.00;2.60;;;;;;;;;;7387834;19;20013;-74
2022/11/10 04:17:01;;;;;;;9.50;2.90;;;;;;;;;;7387459;19;20030;-74
2022/11/10 04:19:26;;;;;;;9.95;3.20;;;;;;;;;;7386892;19;20003;-75
2022/11/10 04:21:52;;;;;;;10.32;2.70;;;;;;;;;;7387086;19;20002;-74
2022/11/10 04:24:17;;;;;;;8.13;3.15;;;;;;;;;;7387915;19;19998;-75
2022/11/10 04:26:43;;;;;;;12.23;2.72;;;;;;;;;;7387429;19;20006;-74
2022/11/10 04:29:10;;;;;;;11.25;2.92;;;;;;;;;;7387273;19;19999;-75
2022/11/10 04:31:37;;;;;;;13.32;3.20;;;;;;;;;;7384390;19;20014;-74
2022/11/10 04:34:04;;;;;;;9.98;2.53;;;;;;;;;;7387128;19;20381;-76
2022/11/10 04:36:31;;;;;;;5.95;2.60;;;;;;;;;;7387186;19;20328;-75
2022/11/10 04:38:57;;;;;;;9.20;2.90;;;;;;;;;;7386557;19;20006;-75
2022/11/10 04:41:24;;;;;;;8.15;3.00;;;;;;;;;;7392266;19;20007;-74
2022/11/10 04:43:50;;;;;;;6.93;2.88;;;;;;;;;;7394335;19;20021;-75
2022/11/10 04:46:21;;;;;;;9.32;2.75;;;;;;;;;;7392499;19;20007;-75
2022/11/10 04:48:47;;;;;;;7.85;2.67;;;;;;;;;;7392877;19;20006;-76
2022/11/10 04:51:13;;;;;;;12.65;2.90;;;;;;;;;;7393707;19;20010;-75
2022/11/10 04:53:39;;;;;;;5.18;2.60;;;;;;;;;;7389952;19;20512;-75
2022/11/10 04:56:04;;;;;;;6.20;2.75;;;;;;;;;;7393728;19;20006;-75
2022/11/10 04:58:30;;;;;;;9.52;2.70;;;;;;;;;;7393641;19;19995;-75
2022/11/10 05:00:55;;;;;;;15.13;3.30;;;;;;;;;;7393477;19;20054;-75
2022/11/10 05:03:20;;;;;;;6.78;2.55;;;;;;;;;;7390492;19;20009;-75
2022/11/10 05:05:46;;;;;;;7.28;2.88;;;;;;;;;;7393900;19;20006;-75
2022/11/10 05:08:11;;;;;;;5.75;2.58;;;;;;;;;;7393534;19;20005;-75
2022/11/10 05:10:37;;;;;;;13.13;2.90;;;;;;;;;;7391492;19;20089;-75
2022/11/10 05:13:03;;;;;;;14.73;3.08;;;;;;;;;;7390506;19;20010;-75
2022/11/10 05:15:29;;;;;;;8.02;3.05;;;;;;;;;;7393395;19;20464;-76
2022/11/10 05:17:55;;;;;;;11.60;2.70;;;;;;;;;;7391415;19;20002;-78
2022/11/10 05:20:23;;;;;;;6.47;2.88;;;;;;;;;;7390431;19;20088;-74
2022/11/10 05:25:54;;;;;;;10.27;3.13;;;;;;;;;;7390782;19;20039;-75
2022/11/10 05:28:19;;;;;;;9.13;3.40;;;;;;;;;;7388772;19;19998;-76
2022/11/10 05:30:45;;;;;;;10.63;3.10;;;;;;;;;;7390354;19;20006;-75
2022/11/10 05:33:10;;;;;;;8.85;3.03;;;;;;;;;;7390318;19;20008;-75
2022/11/10 05:35:36;;;;;;;6.38;3.35;;;;;;;;;;7392567;19;20361;-74
2022/11/10 05:38:02;;;;;;;12.98;3.20;;;;;;;;;;7393480;19;19998;-76
2022/11/10 05:40:28;;;;;;;9.48;2.90;;;;;;;;;;7394028;19;20062;-76
2022/11/10 05:42:54;;;;;;;8.48;3.13;;;;;;;;;;7393862;19;20002;-75
2022/11/10 05:45:25;;;;;;;9.75;3.65;;;;;;;;;;7396147;19;19997;-75
2022/11/10 05:47:50;;;;;;;;;;;;;;;;;;7396474;19;20015;-74
2022/11/10 05:50:17;;;;;;;12.15;3.28;;;;;;;;;;7393162;19;19911;-75
2022/11/10 05:52:46;;;;;;;10.63;3.85;;;;;;;;;;7388033;19;19999;-75
2022/11/10 05:55:12;;;;;;;10.13;4.05;;;;;;;;;;7328203;19;20313;-76
2022/11/10 05:57:40;;;;;;;9.55;3.60;;;;;;;;;;7389406;19;20562;-75
2022/11/10 06:00:06;;;;;;;9.48;3.70;;;;;;;;;;7385326;19;20006;-76
2022/11/10 06:02:31;;;;;;;9.15;4.03;;;;;;;;;;7395655;19;19995;-76
2022/11/10 06:04:57;;;;;;;11.63;3.85;;;;;;;;;;7405251;19;19998;-75
2022/11/10 06:07:22;;;;;;;8.80;3.50;;;;;;;;;;7398160;19;20002;-75
2022/11/10 06:09:47;;;;;;;9.57;4.20;;;;;;;;;;7392794;19;20021;-74
2022/11/10 06:12:13;;;;;;;13.45;3.60;;;;;;;;;;7389837;19;20002;-75
2022/11/10 06:14:38;;;;;;;11.48;3.50;;;;;;;;;;7391615;19;19995;-75
2022/11/10 06:17:04;;;;;;;9.90;3.53;;;;;;;;;;7391989;19;20077;-74
2022/11/10 06:19:29;;;;;;;6.40;3.50;;;;;;;;;;7390428;19;20019;-75
2022/11/10 06:21:54;;;;;;;7.70;3.42;;;;;;;;;;7390113;19;20009;-75
2022/11/10 06:24:20;;;;;;;7.00;3.30;;;;;;;;;;7391344;19;20020;-74
2022/11/10 06:26:45;;;;;;;8.80;3.22;;;;;;;;;;7393998;19;20033;-74
2022/11/10 06:29:10;;;;;;;14.55;3.78;;;;;;;;;;7391499;19;20589;-75
2022/11/10 06:31:36;;;;;;;7.40;3.40;;;;;;;;;;7390495;19;20097;-75
2022/11/10 06:34:01;;;;;;;8.90;3.45;;;;;;;;;;7391748;19;19998;-73
2022/11/10 06:36:27;;;;;;;13.05;3.67;;;;;;;;;;7391712;19;20014;-75
2022/11/10 06:38:52;;;;;;;9.00;3.15;;;;;;;;;;7390838;19;19991;-75
2022/11/10 06:41:17;;;;;;;8.95;3.88;;;;;;;;;;7390545;19;20412;-74
2022/11/10 06:43:42;;;;;;;7.13;3.40;;;;;;;;;;7391160;19;19995;-76
2022/11/10 06:46:08;;;;;;;13.05;3.72;;;;;;;;;;7389060;19;19995;-75
2022/11/10 06:48:33;;;;;;;10.07;3.55;;;;;;;;;;7387709;19;19999;-76
2022/11/10 06:51:00;;;;;;;8.43;4.38;;;;;;;;;;7391758;19;20002;-74
2022/11/10 06:53:25;;;;;;;13.07;3.85;;;;;;;;;;7386350;19;20115;-73
2022/11/10 06:55:50;;;;;;;10.02;4.35;;;;;;;;;;7379963;19;19990;-75
2022/11/10 06:58:16;;;;;;;11.63;3.28;;;;;;;;;;7392291;19;20540;-74
2022/11/10 07:00:41;;;;;;;12.77;4.07;;;;;;;;;;7389241;19;20075;-73
2022/11/10 07:03:11;;;;;;;12.30;4.50;;;;;;;;;;7388256;19;19997;-73
2022/11/10 07:05:36;;;;;;;12.00;4.63;;;;;;;;;;7389523;19;20067;-72
2022/11/10 07:08:07;;;;;;;8.52;3.65;;;;;;;;;;7393202;19;19998;-75
2022/11/10 07:10:33;;;;;;;10.52;4.28;;;;;;;;;;7393485;19;19995;-75
2022/11/10 07:13:01;;;;;;;9.70;4.07;;;;;;;;;;7388749;19;20021;-75
2022/11/10 07:15:26;;;;;;;9.93;3.50;;;;;;;;;;7387136;19;20324;-73
2022/11/10 07:17:51;;;;;;;7.57;3.33;;;;;;;;;;7392983;19;20011;-74
2022/11/10 07:20:17;;;;;;;9.98;3.50;;;;;;;;;;7391713;19;20504;-75
2022/11/10 07:22:42;;;;;;;7.47;3.13;;;;;;;;;;7389407;19;20083;-73
2022/11/10 07:25:08;;;;;;;9.23;3.38;;;;;;;;;;7390434;19;20373;-75
2022/11/10 07:27:33;;;;;;;8.57;2.88;;;;;;;;;;7391446;19;19999;-74
2022/11/10 07:29:59;;;;;;;9.75;3.20;;;;;;;;;;7393166;19;20516;-75
2022/11/10 07:32:24;;;;;;;7.05;3.20;;;;;;;;;;7390827;19;20456;-75
2022/11/10 07:34:50;;;;;;;6.75;3.13;;;;;;;;;;7389050;19;20066;-74
2022/11/10 07:37:15;;;;;;;11.85;3.58;;;;;;;;;;7391732;19;20066;-74
2022/11/10 07:39:40;;;;;;;9.15;3.88;;;;;;;;;;7390461;19;19997;-75
2022/11/10 07:42:06;;;;;;;11.85;3.42;;;;;;;;;;7390059;19;19995;-75
2022/11/10 07:44:34;;;;;;;7.50;2.92;;;;;;;;;;7391615;19;20019;-75
2022/11/10 07:46:59;;;;;;;9.77;3.45;;;;;;;;;;7388560;19;20003;-74
2022/11/10 07:49:24;;;;;;;7.93;3.20;;;;;;;;;;7390037;19;20024;-75
2022/11/10 07:51:50;;;;;;;8.35;3.33;;;;;;;;;;7389601;19;19998;-74
2022/11/10 07:54:15;;;;;;;10.85;3.35;;;;;;;;;;7388292;19;20022;-74
2022/11/10 07:56:41;;;;;;;7.63;3.33;;;;;;;;;;7389296;19;20002;-76
2022/11/10 07:59:06;;;;;;;7.68;3.13;;;;;;;;;;7389322;19;20125;-75
2022/11/10 08:01:32;;;;;;;6.22;2.80;;;;;;;;;;7389301;19;20002;-75
2022/11/10 08:03:58;;;;;;;6.63;2.85;;;;;;;;;;7391925;19;20050;-73
2022/11/10 08:06:23;;;;;;;8.52;3.15;;;;;;;;;;7389427;19;19998;-76
2022/11/10 08:08:52;;;;;;;8.70;3.10;;;;;;;;;;7391813;19;20030;-76
2022/11/10 08:11:17;;;;;;;9.90;3.35;;;;;;;;;;7391549;19;20015;-75
2022/11/10 08:13:42;;;;;;;5.47;3.10;;;;;;;;;;7390036;19;19999;-74
2022/11/10 08:16:08;;;;;;;7.15;2.97;;;;;;;;;;7392131;19;20073;-74
2022/11/10 08:18:33;;;;;;;7.53;2.85;;;;;;;;;;7391949;19;20002;-74
2022/11/10 08:21:03;;;;;;;34.45;4.20;;;;;;;;;;7389349;19;20003;-74
2022/11/10 08:23:28;;;;;;;10.95;3.15;;;;;;;;;;7389829;19;20024;-74
2022/11/10 08:25:57;;;;;;;6.13;2.75;;;;;;;;;;7391480;19;20344;-74
2022/11/10 08:28:23;;;;;;;8.68;3.20;;;;;;;;;;7391588;19;20003;-74
2022/11/10 08:30:48;;;;;;;8.32;3.20;;;;;;;;;;7387849;19;19998;-74
2022/11/10 08:33:16;;;;;;;8.68;3.20;;;;;;;;;;7387491;19;20007;-74
2022/11/10 08:35:45;;;;;;;10.40;3.13;;;;;;;;;;7391054;19;20528;-74
2022/11/10 08:38:15;;;;;;;6.72;2.92;;;;;;;;;;7388455;19;20006;-73
2022/11/10 08:40:41;;;;;;;;;;;;;;;;;;7388024;19;19995;-74
2022/11/10 08:43:08;;;;;;;9.85;2.92;;;;;;;;;;7386559;19;19951;-74
2022/11/10 08:45:34;;;;;;;10.45;2.78;;;;;;;;;;7390584;19;20003;-74
2022/11/10 08:48:02;;;;;;;7.80;2.70;;;;;;;;;;7390217;19;20013;-74
2022/11/10 08:50:28;;;;;;;8.82;2.95;;;;;;;;;;7391903;19;20416;-74
2022/11/10 08:52:54;;;;;;;9.07;2.67;;;;;;;;;;7385778;19;20007;-75
2022/11/10 08:55:20;;;;;;;5.63;2.58;;;;;;;;;;7389445;19;20452;-74
2022/11/10 08:57:47;;;;;;;8.88;2.28;;;;;;;;;;7389685;19;20074;-74
2022/11/10 09:00:13;;;;;;;8.10;2.53;;;;;;;;;;7387116;19;19999;-74
2022/11/10 09:02:39;;;;;;;7.63;2.45;;;;;;;;;;7385990;19;20005;-75
2022/11/10 09:05:05;;;;;;;8.88;2.72;;;;;;;;;;7388374;19;20468;-74
2022/11/10 09:07:30;;;;;;;9.07;2.78;;;;;;;;;;7388650;19;20003;-74
2022/11/10 09:09:56;;;;;;;8.80;2.60;;;;;;;;;;7390679;19;20337;-75
2022/11/10 09:12:21;;;;;;;10.95;2.90;;;;;;;;;;7388463;19;20704;-73
2022/11/10 09:14:46;;;;;;;10.45;2.50;;;;;;;;;;7390631;19;20009;-73
2022/11/10 09:17:12;;;;;;;6.85;2.40;;;;;;;;;;7387588;19;20011;-74
2022/11/10 09:19:37;;;;;;;8.68;2.72;;;;;;;;;;7385639;19;20223;-74
2022/11/10 09:22:03;;;;;;;6.82;2.60;;;;;;;;;;7387902;19;20002;-73
2022/11/10 09:24:28;;;;;;;9.00;3.08;;;;;;;;;;7389573;19;20034;-73
2022/11/10 09:26:53;;;;;;;10.65;2.53;;;;;;;;;;7393523;19;20027;-74
2022/11/10 09:29:20;;;;;;;6.90;2.80;;;;;;;;;;7394233;19;20454;-74
2022/11/10 09:31:45;;;;;;;8.43;2.30;;;;;;;;;;7396032;19;20006;-74
2022/11/10 09:34:10;;;;;;;13.02;2.90;;;;;;;;;;7393182;19;20477;-73
2022/11/10 09:36:36;;;;;;;6.75;2.60;;;;;;;;;;7397363;19;19991;-74
2022/11/10 09:39:01;;;;;;;6.15;2.35;;;;;;;;;;7394937;19;20014;-74
2022/11/10 09:41:28;;;;;;;13.38;2.80;;;;;;;;;;7394041;19;20010;-74
2022/11/10 09:44:04;;;;;;;9.85;2.95;;;;;;;;;;7392727;19;20078;-73
2022/11/10 09:46:37;;;;;;;9.23;2.67;;;;;;;;;;7397211;19;20006;-74
2022/11/10 09:49:26;;;;;;;11.45;3.10;;;;;;;;;;7392882;19;20002;-74
2022/11/10 09:51:53;;;;;;;7.15;2.40;;;;;;;;;;7391867;19;20003;-73
2022/11/10 09:54:33;;;;;;;8.10;3.13;;;;;;;;;;7395649;19;20002;-73
2022/11/10 09:57:01;;;;;;;8.27;2.55;;;;;;;;;;7393642;19;20015;-74
2022/11/10 09:59:31;;;;;;;6.28;2.33;;;;;;;;;;7393051;19;20020;-74
2022/11/10 10:02:02;;;;;;;10.45;2.78;;;;;;;;;;7392068;19;20357;-74
2022/11/10 10:04:32;;;;;;;;;;;;;;;;;;7396244;19;20014;-74
2022/11/10 10:07:08;;;;;;;7.57;2.58;;;;;;;;;;7393586;19;19917;-74
2022/11/10 10:09:43;;;;;;;9.77;3.00;;;;;;;;;;7393592;19;20013;-73
2022/11/10 10:12:39;;;;;;;9.98;2.70;;;;;;;;;;7394123;19;20002;-74
2022/11/10 10:16:10;;;;;;;8.40;2.78;;;;;;;;;;7393767;19;20006;-73
2022/11/10 10:19:01;;;;;;;7.97;2.33;;;;;;;;;;7387332;19;20011;-74
2022/11/10 10:21:45;;;;;;;;;;;;;;;;;;7394109;19;20006;-74
2022/11/10 10:24:13;;;;;;;9.48;2.72;;;;;;;;;;7397319;19;19915;-72
2022/11/10 10:26:43;;;;;;;7.15;2.60;;;;;;;;;;7394503;19;20352;-74
2022/11/10 10:29:15;;;;;;;10.98;3.03;;;;;;;;;;7395070;19;20538;-73
2022/11/10 10:31:47;;;;;;;6.47;2.58;;;;;;;;;;7393278;19;20464;-73
2022/11/10 10:34:18;;;;;;;10.15;2.30;;;;;;;;;;7395103;19;20001;-74
2022/11/10 10:36:45;;;;;;;8.07;2.60;;;;;;;;;;7389870;19;19990;-74
2022/11/10 10:39:30;;;;;;;9.48;2.33;;;;;;;;;;7392283;19;20594;-73
2022/11/10 10:41:56;;;;;;;8.70;2.33;;;;;;;;;;7393840;19;19999;-73
2022/11/10 10:44:22;;;;;;;7.13;2.20;;;;;;;;;;7395342;19;20001;-74
2022/11/10 10:46:57;;;;;;;4.97;2.00;;;;;;;;;;7390602;19;20423;-74
2022/11/10 10:49:25;;;;;;;9.15;2.17;;;;;;;;;;7393370;19;20334;-74
2022/11/10 10:52:10;;;;;;;7.13;2.00;;;;;;;;;;7393271;19;20002;-74
2022/11/10 10:54:37;;;;;;;7.38;1.98;;;;;;;;;;7395810;19;20498;-74
2022/11/10 10:57:27;;;;;;;9.40;2.15;;;;;;;;;;7392620;19;19998;-74
2022/11/10 11:00:18;;;;;;;4.45;2.13;;;;;;;;;;7392723;19;20023;-73
2022/11/10 11:03:00;;;;;;;7.25;2.30;;;;;;;;;;7390486;19;20002;-74
2022/11/10 11:05:25;;;;;;;6.85;2.38;;;;;;;;;;7393096;19;20004;-74
2022/11/10 11:07:56;;;;;;;7.60;2.30;;;;;;;;;;7392259;19;20066;-74
2022/11/10 11:10:32;;;;;;;5.53;2.10;;;;;;;;;;7394954;19;20021;-74
2022/11/10 11:13:24;;;;;;;7.82;2.05;;;;;;;;;;7389837;19;20002;-74
2022/11/10 11:16:11;;;;;;;6.78;1.98;;;;;;;;;;7392887;19;20013;-73
2022/11/10 11:18:39;;;;;;;6.90;2.03;;;;;;;;;;7391248;19;20066;-74
2022/11/10 11:21:19;;;;;;;6.20;2.17;;;;;;;;;;7386287;19;20002;-75
2022/11/10 11:24:01;;;;;;;6.63;2.08;;;;;;;;;;7387560;19;20007;-74
2022/11/10 11:26:54;;;;;;;6.82;2.40;;;;;;;;;;7388671;19;20002;-74
2022/11/10 11:29:31;;;;;;;6.00;2.00;;;;;;;;;;7386731;19;20110;-74
2022/11/10 11:32:32;;;;;;;5.53;1.95;;;;;;;;;;7386593;19;20007;-73
2022/11/10 11:35:15;;;;;;;6.13;2.20;;;;;;;;;;7389344;19;20002;-73
2022/11/10 11:38:07;;;;;;;7.72;2.47;;;;;;;;;;7389586;19;20002;-73
2022/11/10 11:40:52;;;;;;;7.75;2.47;;;;;;;;;;7387377;19;19999;-73
2022/11/10 11:43:51;;;;;;;6.55;2.20;;;;;;;;;;7388610;19;20024;-73
2022/11/10 11:46:30;;;;;;;9.70;2.53;;;;;;;;;;7391991;19;20010;-74
2022/11/10 11:49:24;;;;;;;7.53;2.50;;;;;;;;;;7389294;19;20003;-81
2022/11/10 11:52:02;;;;;;;7.78;2.20;;;;;;;;;;7390594;19;20006;-76
2022/11/10 11:54:42;;;;;;;10.75;2.40;;;;;;;;;;7392535;19;20003;-78
2022/11/10 11:57:29;;;;;;;5.70;2.40;;;;;;;;;;7389969;19;20404;-78
2022/11/10 12:00:17;;;;;;;8.75;2.17;;;;;;;;;;7388631;19;20003;-79
2022/11/10 12:02:52;;;;;;;8.10;2.38;;;;;;;;;;7387665;19;20499;-78
2022/11/10 12:05:42;;;;;;;13.00;2.50;;;;;;;;;;7388157;19;20430;-79
2022/11/10 12:08:20;;;;;;;7.47;2.25;;;;;;;;;;7391001;19;20006;-79
2022/11/10 12:10:48;;;;;;;6.10;2.17;;;;;;;;;;7388751;19;20006;-79
2022/11/10 12:13:22;;;;;;;11.45;2.63;;;;;;;;;;7387738;19;20355;-79
2022/11/10 12:15:57;;;;;;;9.05;2.45;;;;;;;;;;7389284;19;20003;-79
2022/11/10 12:18:35;;;;;;;7.15;2.70;;;;;;;;;;7391804;19;20058;-79
2022/11/10 12:21:21;;;;;;;9.63;2.63;;;;;;;;;;7386873;19;19999;-79
2022/11/10 12:24:22;;;;;;;9.43;2.72;;;;;;;;;;7390878;19;20006;-79
2022/11/10 12:26:56;;;;;;;8.27;2.60;;;;;;;;;;7388688;19;20030;-77
2022/11/10 12:29:33;;;;;;;8.20;2.58;;;;;;;;;;7389371;19;20062;-78
2022/11/10 12:32:15;;;;;;;7.70;2.85;;;;;;;;;;7388227;19;20029;-78
2022/11/10 12:34:45;;;;;;;7.72;2.70;;;;;;;;;;7389429;19;20003;-77
2022/11/10 12:37:18;;;;;;;9.93;3.22;;;;;;;;;;7387471;19;20098;-78
2022/11/10 12:39:55;;;;;;;10.60;3.33;;;;;;;;;;7387101;19;20006;-79
2022/11/10 12:42:23;;;;;;;11.18;3.15;;;;;;;;;;7389502;19;20007;-77
2022/11/10 12:45:15;;;;;;;9.15;3.28;;;;;;;;;;7388192;19;19998;-79
2022/11/10 12:47:44;;;;;;;7.40;2.50;;;;;;;;;;7390557;19;20456;-79
2022/11/10 12:50:15;;;;;;;11.45;3.58;;;;;;;;;;7390958;19;20026;-78
2022/11/10 12:53:02;;;;;;;9.10;3.35;;;;;;;;;;7387752;19;20423;-78
2022/11/10 12:55:39;;;;;;;7.90;2.83;;;;;;;;;;7387692;19;20003;-78
2022/11/10 12:58:06;;;;;;;10.85;3.13;;;;;;;;;;7391281;19;20464;-79
2022/11/10 13:00:38;;;;;;;7.85;3.45;;;;;;;;;;7391086;19;19996;-78
2022/11/10 13:03:04;;;;;;;16.80;3.53;;;;;;;;;;7395314;19;20020;-79
2022/11/10 13:05:35;;;;;;;10.43;3.35;;;;;;;;;;7396761;19;20002;-79
2022/11/10 13:08:15;;;;;;;12.52;2.80;;;;;;;;;;7397220;19;20018;-79
2022/11/10 13:11:05;;;;;;;10.68;3.10;;;;;;;;;;7394918;19;20452;-79
2022/11/10 13:13:42;;;;;;;9.10;2.90;;;;;;;;;;7394752;19;20019;-80
2022/11/10 13:16:09;;;;;;;6.60;2.72;;;;;;;;;;7397471;19;20498;-80
2022/11/10 13:18:34;;;;;;;8.73;3.50;;;;;;;;;;7397757;19;20025;-79
2022/11/10 13:21:00;;;;;;;8.47;2.93;;;;;;;;;;7393843;19;19998;-79
2022/11/10 13:23:54;;;;;;;7.43;2.70;;;;;;;;;;7393042;19;20267;-78
2022/11/10 13:26:38;;;;;;;8.02;3.30;;;;;;;;;;7395122;19;20006;-79
2022/11/10 13:29:28;;;;;;;8.05;2.90;;;;;;;;;;7394572;19;20011;-78
2022/11/10 13:31:56;;;;;;;8.18;3.10;;;;;;;;;;7395364;19;20036;-78
2022/11/10 13:34:21;;;;;;;7.97;2.78;;;;;;;;;;7397118;19;20003;-78
2022/11/10 13:36:48;;;;;;;5.43;2.90;;;;;;;;;;7392375;19;20072;-79
2022/11/10 13:39:21;;;;;;;8.77;2.80;;;;;;;;;;7394304;19;20755;-80
2022/11/10 13:41:49;;;;;;;7.85;3.03;;;;;;;;;;7394020;19;20026;-80
2022/11/10 13:44:31;;;;;;;9.75;3.47;;;;;;;;;;7396063;19;20009;-80
2022/11/10 13:47:01;;;;;;;11.10;2.95;;;;;;;;;;7393833;19;20006;-80
2022/11/10 13:49:34;;;;;;;8.30;2.92;;;;;;;;;;7395272;19;20009;-80
2022/11/10 13:52:10;;;;;;;12.13;3.25;;;;;;;;;;7394575;19;20006;-80
2022/11/10 13:54:43;;;;;;;8.07;3.30;;;;;;;;;;7397006;19;20017;-80
2022/11/10 13:57:35;;;;;;;8.60;3.03;;;;;;;;;;7391743;19;20410;-79
2022/11/10 14:00:15;;;;;;;11.00;3.20;;;;;;;;;;7394369;19;20352;-79
2022/11/10 14:02:56;;;;;;;12.73;3.67;;;;;;;;;;7391240;19;19999;-80
2022/11/10 14:05:27;;;;;;;10.43;2.80;;;;;;;;;;7392993;19;20459;-80
2022/11/10 14:08:00;;;;;;;7.78;3.25;;;;;;;;;;7394524;19;20398;-80
2022/11/10 14:10:41;;;;;;;5.97;2.78;;;;;;;;;;7394650;19;20017;-80
2022/11/10 14:13:11;;;;;;;;;;;;;;;;;;7390238;19;20581;-80
2022/11/10 14:15:41;;;;;;;8.75;2.78;;;;;;;;;;7393064;19;19938;-80
2022/11/10 14:18:38;;;;;;;9.73;3.00;;;;;;;;;;7392978;19;20321;-80
2022/11/10 14:21:04;;;;;;;8.40;3.33;;;;;;;;;;7385753;19;20002;-80
2022/11/10 14:23:44;;;;;;;6.95;3.10;;;;;;;;;;7387743;19;20081;-79
2022/11/10 14:26:38;;;;;;;12.73;4.47;;;;;;;;;;7391157;19;19998;-80
2022/11/10 14:29:39;;;;;;;10.60;3.55;;;;;;;;;;7389494;19;20027;-80
2022/11/10 14:32:14;;;;;;;7.65;2.80;;;;;;;;;;7387306;19;20125;-80
2022/11/10 14:34:45;;;;;;;8.48;3.22;;;;;;;;;;7388016;19;20329;-80
2022/11/10 14:37:14;;;;;;;;;;;;;;;;;;7391724;19;20009;-79
2022/11/10 14:39:40;;;;;;;9.05;2.65;;;;;;;;;;7393045;19;19932;-80
2022/11/10 14:42:05;;;;;;;6.25;2.65;;;;;;;;;;7392700;19;20012;-79
2022/11/10 14:44:32;;;;;;;7.13;2.72;;;;;;;;;;7397789;19;20416;-79
2022/11/10 14:47:26;;;;;;;9.85;3.30;;;;;;;;;;7391971;19;20483;-80
2022/11/10 14:50:25;;;;;;;9.13;3.25;;;;;;;;;;7394799;19;20410;-79
2022/11/10 14:52:56;;;;;;;7.05;3.08;;;;;;;;;;7390054;19;20469;-80
2022/11/10 14:55:25;;;;;;;8.27;3.13;;;;;;;;;;7391491;19;20074;-79
2022/11/10 14:58:00;;;;;;;7.45;2.95;;;;;;;;;;7394128;19;19998;-80
2022/11/10 15:00:26;;;;;;;9.43;3.40;;;;;;;;;;7392726;19;20477;-79
2022/11/10 15:02:54;;;;;;;6.78;2.78;;;;;;;;;;7390259;19;20002;-79
2022/11/10 15:05:20;;;;;;;10.23;2.75;;;;;;;;;;7392874;19;20002;-80
2022/11/10 15:07:47;;;;;;;12.02;3.10;;;;;;;;;;7392198;19;20003;-80
2022/11/10 15:10:19;;;;;;;7.10;2.80;;;;;;;;;;7394012;19;20077;-79
2022/11/10 15:13:00;;;;;;;6.45;2.65;;;;;;;;;;7389820;19;20006;-79